Time;durP1;ratioP1;P1;durP2;ratioP2;P2;SDS_P1;SDS_P2;PMS_P1;PMS_P2;Temp;Humidity;BMP_temperature;BMP_pressure;BME280_temperature;BME280_humidity;BME280_pressure;Samples;Min_cycle;Max_cycle;Signal;HPM_P1;HPM_P2
2023/04/05 00:02:01;;;;;;;36.80;16.80;;;;;;;-2.13;74.21;100447.55;217911;1257;139969;-63
2023/04/05 00:07:07;;;;;;;33.00;14.20;;;;;;;-2.19;74.44;100441.56;219289;1257;140707;-63
2023/04/05 00:12:12;;;;;;;22.90;14.10;;;;;;;-2.22;74.68;100443.20;219222;1256;139730;-63
2023/04/05 00:17:19;;;;;;;36.40;17.00;;;;;;;-2.27;74.63;100441.37;219740;1254;140386;-63
2023/04/05 00:22:24;;;;;;;26.10;14.90;;;;;;;-2.39;74.53;100441.12;219353;1254;140843;-66
2023/04/05 00:27:28;;;;;;;99.20;31.90;;;;;;;-2.52;74.72;100438.30;219594;1254;139996;-63
2023/04/05 00:32:32;;;;;;;39.70;17.60;;;;;;;-2.60;74.70;100432.59;220664;1254;139696;-64
2023/04/05 00:37:36;;;;;;;31.30;17.90;;;;;;;-2.60;75.03;100430.86;220468;1254;140536;-65
2023/04/05 00:42:41;;;;;;;25.00;14.60;;;;;;;-2.60;74.98;100429.33;220902;1254;141266;-65
2023/04/05 00:47:45;;;;;;;31.80;16.50;;;;;;;-2.64;74.84;100424.08;219232;1254;140359;-63
2023/04/05 00:52:50;;;;;;;25.60;17.10;;;;;;;-2.65;75.19;100427.42;219383;1254;206198;-63
2023/04/05 00:57:57;;;;;;;29.70;14.30;;;;;;;-2.65;75.22;100423.94;220092;1254;139940;-63
2023/04/05 01:03:02;;;;;;;;;;;;;;;-2.69;75.33;100420.63;218212;1254;140802;-67
2023/04/05 01:08:21;;;;;;;31.30;16.50;;;;;;;-2.80;75.08;100409.82;219956;1254;126942;-67
2023/04/05 01:13:28;;;;;;;28.60;16.60;;;;;;;-2.91;75.01;100400.65;217899;1259;140266;-63
2023/04/05 01:18:35;;;;;;;29.90;16.90;;;;;;;-2.98;74.96;100390.39;218786;1259;141637;-66
2023/04/05 01:24:13;;;;;;;35.20;19.50;;;;;;;-3.05;75.15;100391.81;217858;1254;140223;-64
2023/04/05 01:29:49;;;;;;;30.60;17.10;;;;;;;-3.09;75.29;100384.64;218786;1254;140094;-63
2023/04/05 01:35:06;;;;;;;30.20;17.00;;;;;;;-3.13;75.45;100374.44;218045;1258;140005;-65
2023/04/05 01:40:11;;;;;;;25.30;14.50;;;;;;;-3.20;75.64;100372.08;218724;1258;139637;-64
2023/04/05 01:45:15;;;;;;;30.40;16.10;;;;;;;-3.29;75.60;100372.46;218259;1257;140124;-77
2023/04/05 01:50:21;;;;;;;34.80;19.10;;;;;;;-3.35;75.70;100365.55;218885;1257;140230;-66
2023/04/05 01:55:26;;;;;;;32.00;16.90;;;;;;;-3.45;75.57;100365.63;218763;1259;140143;-68
2023/04/05 02:00:30;;;;;;;26.70;15.70;;;;;;;-3.54;75.61;100361.27;218673;1256;139952;-65
2023/04/05 02:05:35;;;;;;;37.20;18.50;;;;;;;-3.62;75.78;100365.88;218281;1257;140903;-66
2023/04/05 02:10:40;;;;;;;35.40;18.40;;;;;;;-3.64;75.65;100356.38;219145;1256;140380;-68
2023/04/05 02:15:51;;;;;;;23.80;12.80;;;;;;;-3.66;75.74;100358.13;218955;1257;140636;-67
2023/04/05 02:21:01;;;;;;;31.40;16.00;;;;;;;-3.78;75.78;100355.40;219830;1256;140781;-68
2023/04/05 02:26:06;;;;;;;33.00;16.50;;;;;;;-3.87;75.75;100356.87;220505;1255;140904;-68
2023/04/05 02:31:11;;;;;;;33.50;13.90;;;;;;;-3.92;75.97;100357.30;218890;1256;142064;-67
2023/04/05 02:36:15;;;;;;;37.00;19.80;;;;;;;-4.00;75.69;100359.55;220310;1255;140986;-68
2023/04/05 02:41:19;;;;;;;40.00;20.80;;;;;;;-4.05;76.15;100362.19;220619;1255;141981;-68
2023/04/05 02:46:24;;;;;;;56.20;30.80;;;;;;;-4.06;76.05;100368.35;218909;1255;140212;-67
2023/04/05 02:51:29;;;;;;;27.30;17.20;;;;;;;-4.07;76.12;100374.14;219576;1256;140761;-68
2023/04/05 02:56:34;;;;;;;30.70;17.20;;;;;;;-4.05;76.37;100372.81;218746;1259;140587;-67
2023/04/05 03:01:43;;;;;;;37.70;20.00;;;;;;;-4.06;76.45;100376.33;218063;1256;140471;-67
2023/04/05 03:06:49;;;;;;;37.80;17.80;;;;;;;-4.06;76.68;100372.36;219026;1256;140786;-67
2023/04/05 03:11:54;;;;;;;31.80;16.90;;;;;;;-4.08;76.72;100378.23;219016;1256;140189;-67
2023/04/05 03:17:00;;;;;;;29.90;15.80;;;;;;;-4.10;76.58;100383.61;219133;1255;140302;-64
2023/04/05 03:22:06;;;;;;;27.50;16.30;;;;;;;-4.16;76.39;100383.59;218259;1255;140328;-64
2023/04/05 03:27:12;;;;;;;33.30;17.60;;;;;;;-4.20;76.62;100388.05;218802;1256;140233;-65
2023/04/05 03:32:17;;;;;;;31.60;15.40;;;;;;;-4.22;76.73;100385.44;217898;1255;140031;-64
2023/04/05 03:37:23;;;;;;;26.20;14.10;;;;;;;-4.23;76.88;100386.05;218025;1257;140690;-64
2023/04/05 03:42:28;;;;;;;48.10;19.30;;;;;;;-4.24;77.15;100384.55;218002;1257;142938;-64
2023/04/05 03:47:34;;;;;;;138.50;44.80;;;;;;;-4.23;77.41;100385.40;217730;1254;139972;-64
2023/04/05 03:52:38;;;;;;;186.30;63.80;;;;;;;-4.24;77.38;100383.06;218117;1256;140349;-64
2023/04/05 03:57:43;;;;;;;145.60;54.90;;;;;;;-4.23;77.44;100380.88;218068;1258;140260;-64
2023/04/05 04:02:47;;;;;;;85.20;36.30;;;;;;;-4.23;77.55;100377.18;218793;1255;141181;-64
2023/04/05 04:07:53;;;;;;;90.40;38.70;;;;;;;-4.23;77.33;100382.39;218317;1256;232226;-66
2023/04/05 04:12:57;;;;;;;59.10;24.30;;;;;;;-4.26;77.27;100384.09;220538;1255;140318;-65
2023/04/05 04:18:01;;;;;;;77.80;30.10;;;;;;;-4.33;77.06;100388.63;220907;1254;141285;-65
2023/04/05 04:23:09;;;;;;;35.30;20.70;;;;;;;-4.36;77.21;100395.80;220648;1256;140271;-66
2023/04/05 04:28:18;;;;;;;49.90;25.20;;;;;;;-4.38;76.93;100397.86;220419;1256;141137;-68
2023/04/05 04:33:23;;;;;;;49.80;25.00;;;;;;;-4.32;76.98;100402.83;219676;1255;141117;-67
2023/04/05 04:38:27;;;;;;;45.20;20.80;;;;;;;-4.28;77.03;100403.80;219013;1256;140814;-67
2023/04/05 04:43:32;;;;;;;141.50;46.10;;;;;;;-4.28;77.10;100408.16;220519;1256;140314;-68
2023/04/05 04:48:36;;;;;;;125.00;40.20;;;;;;;-4.24;77.01;100412.33;220699;1254;141336;-68
2023/04/05 04:53:42;;;;;;;52.60;23.20;;;;;;;-4.26;77.11;100415.42;219122;1257;140423;-67
2023/04/05 04:58:47;;;;;;;39.60;20.90;;;;;;;-4.26;77.11;100411.15;218138;1258;139985;-66
2023/04/05 05:03:52;;;;;;;48.40;24.50;;;;;;;-4.26;77.32;100411.63;218629;1254;141230;-66
2023/04/05 05:08:58;;;;;;;34.50;20.10;;;;;;;-4.14;77.71;100413.73;218756;1256;141038;-66
2023/04/05 05:14:04;;;;;;;43.20;23.80;;;;;;;-3.87;77.84;100414.39;218550;1255;141017;-66
2023/04/05 05:19:09;;;;;;;46.30;25.70;;;;;;;-3.62;78.17;100415.55;218461;1259;140394;-65
2023/04/05 05:24:13;;;;;;;53.50;27.70;;;;;;;-3.38;78.52;100417.18;218643;1256;140197;-65
2023/04/05 05:29:19;;;;;;;62.90;30.90;;;;;;;-3.08;78.98;100416.78;218884;1254;139958;-65
2023/04/05 05:34:24;;;;;;;57.60;28.90;;;;;;;-2.84;78.64;100418.48;218180;1254;140085;-65
2023/04/05 05:39:30;;;;;;;46.30;25.70;;;;;;;-2.60;78.91;100419.33;219606;1254;141052;-66
2023/04/05 05:44:35;;;;;;;50.40;26.70;;;;;;;-2.38;78.46;100414.28;218290;1256;141011;-65
2023/04/05 05:49:41;;;;;;;61.30;30.90;;;;;;;-2.19;78.40;100419.26;219284;1257;139936;-65
2023/04/05 05:54:46;;;;;;;56.60;29.70;;;;;;;-1.95;78.65;100419.54;218669;1257;140800;-65
2023/04/05 05:59:52;;;;;;;60.50;29.70;;;;;;;-1.69;78.37;100415.92;219498;1256;140317;-66
2023/04/05 06:04:56;;;;;;;60.10;28.80;;;;;;;-1.40;78.34;100416.20;220133;1254;140864;-66
2023/04/05 06:10:01;;;;;;;52.80;27.70;;;;;;;-1.00;78.38;100417.54;220707;1254;141302;-66
2023/04/05 06:15:06;;;;;;;45.10;25.70;;;;;;;-0.65;78.27;100416.30;219595;1254;139542;-68
2023/04/05 06:20:11;;;;;;;56.90;28.80;;;;;;;-0.34;78.03;100419.75;220716;1254;141185;-68
2023/04/05 06:25:15;;;;;;;40.00;24.80;;;;;;;-0.01;77.24;100421.46;219769;1254;140464;-68
2023/04/05 06:30:21;;;;;;;30.30;17.20;;;;;;;0.30;76.90;100415.27;219186;1254;141297;-67
2023/04/05 06:35:26;;;;;;;30.90;17.70;;;;;;;0.63;76.24;100415.77;219602;1254;141575;-67
2023/04/05 06:40:30;;;;;;;22.10;13.40;;;;;;;0.99;75.56;100413.29;219042;1254;140049;-67
2023/04/05 06:45:36;;;;;;;16.60;9.80;;;;;;;1.26;74.82;100416.14;219348;1256;140388;-67
2023/04/05 06:50:41;;;;;;;12.80;5.90;;;;;;;1.68;74.25;100415.06;218294;1254;139525;-67
2023/04/05 06:55:50;;;;;;;9.80;5.20;;;;;;;2.20;73.27;100415.09;218969;1254;140337;-67
2023/04/05 07:00:55;;;;;;;8.00;4.50;;;;;;;2.55;72.55;100416.96;218099;1259;140078;-66
2023/04/05 07:06:01;;;;;;;6.60;4.00;;;;;;;2.82;71.41;100420.84;218618;1255;138804;-67
2023/04/05 07:11:06;;;;;;;8.10;4.20;;;;;;;3.01;70.48;100420.79;218775;1255;138751;-67
2023/04/05 07:16:11;;;;;;;7.50;3.90;;;;;;;3.31;69.67;100411.64;218434;1255;138683;-68
2023/04/05 07:21:15;;;;;;;4.80;3.00;;;;;;;3.61;68.79;100414.08;218000;1257;139546;-67
2023/04/05 07:26:21;;;;;;;6.90;3.80;;;;;;;4.00;67.79;100412.27;218396;1256;138752;-67
2023/04/05 07:31:26;;;;;;;5.90;2.90;;;;;;;4.75;67.54;100415.48;218560;1257;139402;-68
2023/04/05 07:36:31;;;;;;;5.00;2.70;;;;;;;5.32;66.57;100411.28;218092;1259;138522;-68
2023/04/05 07:41:39;;;;;;;2.50;2.00;;;;;;;5.63;65.16;100410.20;219344;1254;139499;-68
2023/04/05 07:46:46;;;;;;;;;;;;;;;5.32;63.70;100411.52;219012;1256;138587;-68
2023/04/05 07:51:56;;;;;;;1.70;1.40;;;;;;;5.23;63.15;100409.59;220544;1256;125224;-69
2023/04/05 07:57:02;;;;;;;3.90;2.30;;;;;;;5.93;63.30;100405.86;219125;1254;138957;-69
2023/04/05 08:02:08;;;;;;;5.30;2.20;;;;;;;6.31;61.65;100403.72;220460;1257;139573;-69
2023/04/05 08:07:18;;;;;;;4.20;2.00;;;;;;;6.45;61.03;100403.08;220762;1255;138995;-70
2023/04/05 08:12:24;;;;;;;3.80;2.00;;;;;;;6.56;60.25;100399.92;220883;1254;139213;-69
2023/04/05 08:17:30;;;;;;;4.70;2.80;;;;;;;6.62;59.67;100397.90;220756;1254;139330;-70
2023/04/05 08:22:36;;;;;;;3.70;2.30;;;;;;;6.72;59.24;100398.27;220081;1254;138889;-69
2023/04/05 08:27:41;;;;;;;5.80;1.80;;;;;;;6.72;58.07;100399.06;219261;1254;139361;-69
2023/04/05 08:32:46;;;;;;;3.40;2.20;;;;;;;6.94;58.84;100396.84;218629;1254;139382;-69
2023/04/05 08:37:51;;;;;;;3.50;1.90;;;;;;;7.25;58.52;100392.84;219524;1254;138925;-69
2023/04/05 08:43:17;;;;;;;3.80;2.30;;;;;;;7.17;56.37;100392.98;218833;1257;139650;-68
2023/04/05 08:48:27;;;;;;;2.50;2.00;;;;;;;6.76;55.48;100398.55;218862;1259;139237;-69
2023/04/05 08:53:33;;;;;;;3.50;2.20;;;;;;;6.53;55.64;100394.11;218248;1257;138596;-69
2023/04/05 08:58:39;;;;;;;1.90;1.80;;;;;;;6.27;55.64;100391.98;218431;1257;138658;-69
2023/04/05 09:03:46;;;;;;;2.50;2.20;;;;;;;6.27;55.15;100396.80;218627;1259;138386;-69
2023/04/05 09:08:51;;;;;;;9.20;1.60;;;;;;;6.37;55.18;100391.11;218788;1257;138650;-69
2023/04/05 09:13:55;;;;;;;3.40;1.80;;;;;;;6.47;54.94;100394.30;218639;1254;139125;-69
2023/04/05 09:19:01;;;;;;;2.50;1.90;;;;;;;6.68;54.38;100396.10;219090;1256;140094;-69
2023/04/05 09:24:06;;;;;;;3.70;1.60;;;;;;;7.13;54.74;100396.13;219387;1256;138749;-69
2023/04/05 09:29:29;;;;;;;2.30;1.80;;;;;;;7.46;53.69;100396.11;219513;1257;138859;-69
2023/04/05 09:34:37;;;;;;;2.60;1.90;;;;;;;7.22;53.42;100395.42;218610;1257;139184;-69
2023/04/05 09:39:43;;;;;;;3.60;1.60;;;;;;;6.94;52.90;100391.49;219260;1257;139173;-70
2023/04/05 09:45:04;;;;;;;1.80;1.60;;;;;;;7.25;53.30;100387.33;219795;1255;139431;-71
2023/04/05 09:50:15;;;;;;;1.80;1.70;;;;;;;7.84;52.95;100390.79;217911;1257;139276;-69
2023/04/05 09:55:27;;;;;;;3.30;2.40;;;;;;;8.13;52.33;100386.60;220790;1254;138725;-70
2023/04/05 10:00:36;;;;;;;5.20;2.10;;;;;;;8.28;51.43;100388.55;220667;1254;139117;-70
2023/04/05 10:05:43;;;;;;;2.00;1.70;;;;;;;7.77;50.57;100391.02;218736;1259;220799;-70
2023/04/05 10:10:53;;;;;;;7.80;2.10;;;;;;;7.28;50.90;100388.45;220729;1255;139539;-70
2023/04/05 10:16:01;;;;;;;5.00;1.80;;;;;;;7.02;51.22;100392.35;219573;1257;139207;-69
2023/04/05 10:21:09;;;;;;;;;;;;;;;6.83;50.66;100388.65;220230;1257;139308;-69
2023/04/05 10:26:55;;;;;;;4.00;1.70;;;;;;;6.68;50.25;100385.55;218929;1254;126117;-68
2023/04/05 10:32:55;;;;;;;5.10;2.10;;;;;;;7.28;51.80;100380.29;219427;1254;139332;-70
2023/04/05 10:38:26;;;;;;;3.50;1.70;;;;;;;7.97;51.24;100378.48;218860;1259;139766;-70
2023/04/05 10:43:34;;;;;;;2.70;2.10;;;;;;;8.18;50.37;100376.39;218998;1258;138363;-70
2023/04/05 10:49:00;;;;;;;5.40;2.30;;;;;;;7.67;49.82;100376.59;218300;1258;138590;-69
2023/04/05 10:54:09;;;;;;;4.80;3.80;;;;;;;7.16;50.20;100371.05;218448;1258;139119;-69
2023/04/05 10:59:14;;;;;;;;;;;;;;;6.81;50.46;100369.36;217407;1254;1281151;-69
2023/04/05 11:04:19;;;;;;;3.50;2.60;;;;;;;6.67;50.28;100366.17;218777;1254;125917;-69
2023/04/05 11:09:26;;;;;;;1.80;1.70;;;;;;;6.89;50.24;100361.45;218121;1259;139714;-69
2023/04/05 11:14:34;;;;;;;7.00;3.70;;;;;;;7.43;50.26;100357.78;219351;1257;139302;-69
2023/04/05 11:19:43;;;;;;;3.50;2.60;;;;;;;7.74;48.96;100355.49;217968;1256;138858;-69
2023/04/05 11:24:56;;;;;;;4.20;1.80;;;;;;;7.78;48.48;100355.71;219075;1256;139813;-70
2023/04/05 11:30:05;;;;;;;4.00;2.00;;;;;;;7.37;48.36;100352.45;218176;1259;139562;-71
2023/04/05 11:35:17;;;;;;;3.00;1.80;;;;;;;6.98;48.61;100352.29;219289;1257;139265;-71
2023/04/05 11:40:31;;;;;;;3.10;2.20;;;;;;;6.72;48.70;100349.13;220085;1259;139370;-70
2023/04/05 11:45:39;;;;;;;5.50;3.50;;;;;;;6.63;49.14;100346.19;218939;1257;139452;-70
2023/04/05 11:50:49;;;;;;;4.50;2.80;;;;;;;7.01;49.30;100339.79;219394;1255;140112;-69
2023/04/05 11:55:55;;;;;;;5.90;3.30;;;;;;;7.39;48.98;100343.48;219958;1256;138570;-70
2023/04/05 12:01:02;;;;;;;4.50;2.50;;;;;;;7.64;49.19;100346.70;220567;1255;139899;-70
2023/04/05 12:06:07;;;;;;;3.80;2.20;;;;;;;7.87;48.39;100338.73;220672;1256;139721;-70
2023/04/05 12:11:12;;;;;;;5.00;3.70;;;;;;;8.14;48.04;100331.58;220187;1256;138806;-71
2023/04/05 12:16:17;;;;;;;3.30;2.20;;;;;;;8.34;48.12;100334.81;219592;1259;139836;-70
2023/04/05 12:21:22;;;;;;;2.50;2.30;;;;;;;8.39;47.61;100333.17;220225;1257;139930;-70
2023/04/05 12:26:33;;;;;;;2.50;2.30;;;;;;;8.02;47.42;100330.55;219585;1258;140427;-70
2023/04/05 12:31:39;;;;;;;4.60;3.00;;;;;;;7.61;47.39;100331.91;219051;1259;139449;-69
2023/04/05 12:36:45;;;;;;;4.10;3.00;;;;;;;7.12;47.26;100326.94;218522;1257;138549;-70
2023/04/05 12:41:58;;;;;;;5.90;2.50;;;;;;;6.66;47.89;100328.14;217840;1259;138524;-70
2023/04/05 12:47:06;;;;;;;3.90;2.80;;;;;;;6.44;48.32;100330.71;218596;1257;139155;-69
2023/04/05 12:52:20;;;;;;;4.00;2.80;;;;;;;6.52;48.62;100331.52;218541;1257;139150;-72
2023/04/05 12:57:32;;;;;;;4.70;2.40;;;;;;;6.84;48.67;100326.58;218280;1257;139678;-70
2023/04/05 13:02:37;;;;;;;2.60;2.20;;;;;;;7.19;48.49;100320.98;218148;1259;138347;-69
2023/04/05 13:07:43;;;;;;;3.40;3.10;;;;;;;7.57;48.52;100327.50;218435;1257;138442;-71
2023/04/05 13:12:49;;;;;;;4.90;3.40;;;;;;;7.90;47.97;100336.99;217946;1257;139674;-70
2023/04/05 13:17:55;;;;;;;4.90;2.90;;;;;;;7.74;47.16;100335.27;218036;1254;139627;-70
2023/04/05 13:23:00;;;;;;;3.00;2.80;;;;;;;7.59;47.49;100333.09;218795;1259;139207;-71
2023/04/05 13:28:08;;;;;;;3.20;2.90;;;;;;;7.51;47.71;100329.65;218384;1257;138917;-70
2023/04/05 13:33:13;;;;;;;3.70;2.70;;;;;;;7.60;47.42;100327.75;218864;1256;138956;-70
2023/04/05 13:38:20;;;;;;;4.60;3.10;;;;;;;7.84;47.53;100326.09;218780;1257;138847;-69
2023/04/05 13:43:26;;;;;;;;;;;;;;;7.97;47.47;100324.61;219446;1257;138985;-70
2023/04/05 13:48:32;;;;;;;2.80;2.50;;;;;;;7.83;46.88;100321.91;219197;1257;125950;-69
2023/04/05 13:53:37;;;;;;;2.80;2.50;;;;;;;7.67;46.20;100319.20;219861;1257;139396;-69
2023/04/05 13:58:42;;;;;;;5.20;3.30;;;;;;;7.81;47.23;100315.38;219648;1256;138826;-71
2023/04/05 14:03:47;;;;;;;4.10;2.30;;;;;;;8.03;47.10;100307.10;220537;1257;139541;-70
2023/04/05 14:08:54;;;;;;;2.50;2.30;;;;;;;8.21;46.71;100307.84;219632;1256;138551;-71
2023/04/05 14:14:00;;;;;;;3.60;2.50;;;;;;;8.21;46.94;100306.00;219876;1257;139602;-70
2023/04/05 14:19:05;;;;;;;2.90;2.60;;;;;;;8.13;46.75;100308.41;219661;1259;139865;-70
2023/04/05 14:24:08;;;;;;;3.10;2.40;;;;;;;7.94;47.09;100309.67;219138;1257;139982;-72
2023/04/05 14:29:13;;;;;;;4.60;2.80;;;;;;;7.90;47.32;100313.40;219316;1259;139268;-77
2023/04/05 14:34:18;;;;;;;5.30;2.80;;;;;;;7.70;46.54;100318.50;219193;1257;140319;-72
2023/04/05 14:39:23;;;;;;;4.60;3.00;;;;;;;7.32;46.21;100320.33;218978;1257;139189;-69
2023/04/05 14:44:27;;;;;;;3.20;2.30;;;;;;;7.06;46.01;100327.77;218827;1257;139392;-71
2023/04/05 14:49:32;;;;;;;7.00;4.50;;;;;;;7.03;46.14;100326.41;217694;1257;139016;-68
2023/04/05 14:54:37;;;;;;;4.00;3.10;;;;;;;6.94;46.62;100327.89;218208;1258;139135;-64
2023/04/05 14:59:42;;;;;;;3.80;2.50;;;;;;;6.73;46.77;100332.06;219131;1254;140027;-67
2023/04/05 15:04:47;;;;;;;3.60;2.00;;;;;;;6.50;46.70;100332.56;218543;1259;139880;-66
2023/04/05 15:09:51;;;;;;;5.20;2.60;;;;;;;6.33;47.02;100338.39;217717;1257;140464;-67
2023/04/05 15:14:56;;;;;;;2.60;2.40;;;;;;;6.32;47.50;100336.89;218342;1259;138911;-68
2023/04/05 15:20:01;;;;;;;3.10;2.80;;;;;;;6.28;47.50;100342.14;219142;1256;139535;-70
2023/04/05 15:25:07;;;;;;;4.90;3.80;;;;;;;6.15;47.04;100338.31;219053;1259;140381;-68
2023/04/05 15:30:15;;;;;;;3.80;2.30;;;;;;;6.16;47.22;100340.20;218675;1258;141269;-69
2023/04/05 15:35:21;;;;;;;3.40;2.70;;;;;;;6.24;47.29;100341.05;217782;1260;139009;-65
2023/04/05 15:40:25;;;;;;;8.40;3.10;;;;;;;6.21;46.85;100336.90;218580;1259;139630;-64
2023/04/05 15:45:28;;;;;;;4.90;2.90;;;;;;;5.94;47.79;100343.39;219154;1255;139623;-66
2023/04/05 15:50:32;;;;;;;3.10;2.60;;;;;;;5.73;47.51;100345.44;220549;1257;139911;-69
2023/04/05 15:55:35;;;;;;;7.00;3.60;;;;;;;5.61;47.81;100345.36;220640;1257;139343;-67
2023/04/05 16:00:40;;;;;;;2.70;2.10;;;;;;;5.58;47.86;100345.40;220822;1255;139864;-67
2023/04/05 16:05:45;;;;;;;6.10;2.60;;;;;;;5.49;47.54;100346.73;218765;1259;138892;-66
2023/04/05 16:10:52;;;;;;;10.30;4.70;;;;;;;5.26;47.40;100344.06;219020;1257;141018;-66
2023/04/05 16:16:01;;;;;;;3.20;2.90;;;;;;;5.15;47.33;100343.98;219688;1257;139996;-68
2023/04/05 16:21:06;;;;;;;4.60;3.90;;;;;;;5.06;48.00;100346.36;218377;1258;139996;-67
2023/04/05 16:26:12;;;;;;;9.60;5.30;;;;;;;5.06;48.08;100345.58;217497;1260;138597;-66
2023/04/05 16:31:18;;;;;;;7.90;4.60;;;;;;;4.97;48.47;100345.73;218132;1257;138463;-67
2023/04/05 16:36:22;;;;;;;8.50;4.40;;;;;;;4.85;48.39;100349.39;218505;1256;140107;-67
2023/04/05 16:41:27;;;;;;;20.60;11.00;;;;;;;4.64;49.09;100354.63;218679;1257;140656;-66
2023/04/05 16:46:33;;;;;;;10.50;4.80;;;;;;;4.49;49.90;100360.02;218686;1258;140319;-67
2023/04/05 16:51:40;;;;;;;12.60;6.70;;;;;;;4.32;50.07;100358.70;219039;1256;138691;-67
2023/04/05 16:56:44;;;;;;;6.50;5.00;;;;;;;4.14;50.51;100366.11;217941;1259;138784;-67
2023/04/05 17:01:48;;;;;;;10.70;6.60;;;;;;;3.93;50.80;100367.34;217955;1254;230824;-66
2023/04/05 17:06:54;;;;;;;10.90;6.70;;;;;;;3.72;51.34;100367.98;218866;1260;139060;-67
2023/04/05 17:11:58;;;;;;;9.50;5.70;;;;;;;3.52;51.83;100370.34;218302;1257;139691;-67
2023/04/05 17:17:07;;;;;;;8.00;5.10;;;;;;;3.33;52.01;100370.02;218957;1257;139743;-67
2023/04/05 17:22:13;;;;;;;10.10;6.10;;;;;;;3.18;52.76;100367.61;218062;1259;139218;-66
2023/04/05 17:27:19;;;;;;;10.30;5.50;;;;;;;3.03;52.73;100371.47;219094;1257;138892;-66
2023/04/05 17:32:26;;;;;;;9.50;6.40;;;;;;;2.84;52.98;100376.73;219717;1258;139400;-66
2023/04/05 17:37:32;;;;;;;6.70;4.20;;;;;;;2.67;53.34;100377.54;218368;1257;140254;-66
2023/04/05 17:42:36;;;;;;;6.50;3.80;;;;;;;2.52;53.73;100378.17;220673;1257;140427;-66
2023/04/05 17:47:40;;;;;;;8.90;4.60;;;;;;;2.39;54.45;100381.92;220558;1256;139739;-67
2023/04/05 17:52:46;;;;;;;6.20;4.60;;;;;;;2.25;54.31;100385.87;220585;1255;139322;-67
2023/04/05 17:57:55;;;;;;;4.70;4.30;;;;;;;2.14;54.44;100392.48;219739;1255;139613;-66
2023/04/05 18:03:01;;;;;;;7.80;4.80;;;;;;;2.00;55.03;100403.39;220439;1257;139801;-67
2023/04/05 18:08:13;;;;;;;8.30;5.00;;;;;;;1.85;55.45;100403.83;219295;1256;139266;-66
2023/04/05 18:13:19;;;;;;;13.00;5.40;;;;;;;1.68;56.01;100409.08;219084;1254;139380;-65
2023/04/05 18:18:26;;;;;;;7.90;5.10;;;;;;;1.49;56.54;100413.17;219571;1254;139525;-66
2023/04/05 18:23:31;;;;;;;9.00;6.10;;;;;;;1.33;57.33;100416.60;218778;1257;139445;-66
2023/04/05 18:28:35;;;;;;;12.20;6.00;;;;;;;1.14;57.76;100420.73;218323;1257;140571;-66
2023/04/05 18:33:39;;;;;;;9.60;6.50;;;;;;;0.95;58.30;100430.20;219029;1256;139330;-65
2023/04/05 18:38:43;;;;;;;7.60;5.90;;;;;;;0.77;59.27;100436.59;219226;1256;139719;-65
2023/04/05 18:43:50;;;;;;;14.40;6.80;;;;;;;0.57;59.89;100438.89;217996;1260;138843;-65
2023/04/05 18:48:56;;;;;;;12.90;7.90;;;;;;;0.39;60.01;100445.04;219245;1257;139168;-66
2023/04/05 18:54:02;;;;;;;9.00;6.70;;;;;;;0.22;60.46;100449.10;217759;1259;139595;-66
2023/04/05 18:59:06;;;;;;;12.00;7.80;;;;;;;0.06;60.78;100453.38;218094;1255;139238;-66
2023/04/05 19:04:11;;;;;;;13.80;8.40;;;;;;;-0.05;61.76;100456.23;218011;1257;139963;-66
2023/04/05 19:09:17;;;;;;;15.00;7.70;;;;;;;-0.14;62.33;100456.64;218559;1256;140155;-67
2023/04/05 19:14:20;;;;;;;15.80;9.60;;;;;;;-0.24;63.05;100461.64;218691;1254;140014;-66
2023/04/05 19:19:25;;;;;;;18.80;10.50;;;;;;;-0.31;63.37;100463.70;218776;1258;139202;-67
2023/04/05 19:24:30;;;;;;;26.20;13.00;;;;;;;-0.35;63.31;100468.75;219270;1259;140112;-67
2023/04/05 19:29:34;;;;;;;26.00;12.50;;;;;;;-0.45;63.16;100460.60;219269;1254;139816;-66
2023/04/05 19:34:39;;;;;;;17.80;11.90;;;;;;;-0.55;63.51;100465.25;219640;1254;140152;-67
2023/04/05 19:39:44;;;;;;;17.40;11.70;;;;;;;-0.61;63.96;100466.88;220671;1256;140227;-68
2023/04/05 19:44:56;;;;;;;23.60;11.80;;;;;;;-0.66;64.44;100460.55;220498;1256;139668;-65
2023/04/05 19:50:00;;;;;;;25.90;13.40;;;;;;;-0.67;64.92;100461.39;220583;1257;141650;-67
2023/04/05 19:55:28;;;;;;;22.20;12.50;;;;;;;-0.71;64.74;100462.77;219915;1254;139456;-67
2023/04/05 20:00:36;;;;;;;17.40;10.20;;;;;;;-0.78;65.17;100463.07;220287;1256;139660;-68
2023/04/05 20:05:45;;;;;;;23.40;14.70;;;;;;;-0.84;65.15;100457.33;220099;1256;139682;-67
2023/04/05 20:10:51;;;;;;;31.50;18.70;;;;;;;-0.88;65.33;100453.54;219803;1256;139109;-66
2023/04/05 20:15:56;;;;;;;42.30;23.90;;;;;;;-0.93;65.32;100451.23;218957;1256;140803;-66
2023/04/05 20:21:01;;;;;;;42.90;25.40;;;;;;;-0.95;65.60;100456.02;218924;1257;140324;-65
2023/04/05 20:26:06;;;;;;;47.40;25.90;;;;;;;-0.99;65.35;100456.58;218145;1257;141373;-66
2023/04/05 20:31:19;;;;;;;58.50;28.50;;;;;;;-1.05;65.36;100453.36;218633;1256;139845;-66
2023/04/05 20:36:32;;;;;;;49.20;22.00;;;;;;;-1.14;65.65;100450.88;218508;1257;140449;-66
2023/04/05 20:41:37;;;;;;;42.50;24.40;;;;;;;-1.19;65.85;100447.05;217990;1259;139795;-66
2023/04/05 20:46:41;;;;;;;40.70;25.80;;;;;;;-1.25;66.02;100440.79;218830;1256;140235;-65
2023/04/05 20:51:46;;;;;;;53.00;27.70;;;;;;;-1.29;66.20;100437.05;218332;1257;140030;-65
2023/04/05 20:56:50;;;;;;;43.90;25.10;;;;;;;-1.35;66.12;100440.50;218657;1257;140166;-65
2023/04/05 21:01:55;;;;;;;48.50;26.70;;;;;;;-1.40;66.53;100442.02;218462;1256;140209;-66
2023/04/05 21:07:00;;;;;;;54.70;28.50;;;;;;;-1.42;66.73;100442.36;218808;1257;142700;-66
2023/04/05 21:12:06;;;;;;;50.80;28.30;;;;;;;-1.46;66.61;100441.70;219051;1257;139792;-66
2023/04/05 21:17:10;;;;;;;62.20;28.40;;;;;;;-1.52;66.67;100443.64;218984;1256;140060;-66
2023/04/05 21:22:15;;;;;;;49.70;27.40;;;;;;;-1.57;66.84;100447.23;219250;1254;140014;-66
2023/04/05 21:27:20;;;;;;;53.90;26.20;;;;;;;-1.61;67.28;100446.27;218319;1259;140257;-65
2023/04/05 21:32:24;;;;;;;57.70;29.40;;;;;;;-1.65;67.44;100443.48;220045;1256;140654;-66
2023/04/05 21:37:29;;;;;;;52.70;30.80;;;;;;;-1.66;67.74;100439.77;220678;1254;140992;-66
2023/04/05 21:42:34;;;;;;;55.30;31.80;;;;;;;-1.68;67.79;100438.29;220733;1255;140158;-66
2023/04/05 21:47:38;;;;;;;65.20;36.30;;;;;;;-1.72;67.83;100437.46;220477;1255;140756;-67
2023/04/05 21:52:44;;;;;;;59.00;29.00;;;;;;;-1.74;67.78;100441.29;220677;1256;140034;-66
2023/04/05 21:57:49;;;;;;;58.70;29.20;;;;;;;-1.74;68.04;100440.59;220178;1256;140549;-66
2023/04/05 22:02:54;;;;;;;53.40;27.10;;;;;;;-1.80;68.25;100446.70;218702;1256;139752;-65
2023/04/05 22:07:59;;;;;;;59.30;29.70;;;;;;;-1.81;68.63;100443.29;219309;1256;139973;-65
2023/04/05 22:13:03;;;;;;;63.50;31.10;;;;;;;-1.81;68.67;100441.95;219197;1254;154831;-64
2023/04/05 22:18:07;;;;;;;67.60;29.60;;;;;;;-1.88;68.75;100446.45;219353;1254;140116;-64
2023/04/05 22:23:11;;;;;;;65.70;30.70;;;;;;;-1.92;68.81;100449.58;218538;1254;140204;-66
2023/04/05 22:28:15;;;;;;;57.70;29.90;;;;;;;-1.99;68.76;100452.80;218344;1254;141559;-66
2023/04/05 22:33:19;;;;;;;58.10;29.10;;;;;;;-2.13;68.77;100454.75;219119;1254;140168;-66
2023/04/05 22:38:25;;;;;;;61.40;35.70;;;;;;;-2.24;68.77;100456.11;218040;1257;140074;-66
2023/04/05 22:43:30;;;;;;;72.30;33.90;;;;;;;-2.32;69.23;100459.36;218596;1256;140244;-66
2023/04/05 22:48:35;;;;;;;58.30;30.50;;;;;;;-2.38;69.28;100462.01;218330;1259;140842;-64
2023/04/05 22:53:42;;;;;;;59.50;29.70;;;;;;;-2.46;69.47;100459.89;218055;1259;140149;-64
2023/04/05 22:58:48;;;;;;;55.20;29.10;;;;;;;-2.51;69.71;100459.13;218564;1254;331388;-64
2023/04/05 23:03:53;;;;;;;60.40;25.70;;;;;;;-2.53;70.09;100456.16;218271;1258;141513;-64
2023/04/05 23:08:57;;;;;;;65.80;30.70;;;;;;;-2.52;70.25;100459.88;219396;1254;140764;-66